Time;durP1;ratioP1;P1;durP2;ratioP2;P2;SDS_P1;SDS_P2;PMS_P1;PMS_P2;Temp;Humidity;BMP_temperature;BMP_pressure;BME280_temperature;BME280_humidity;BME280_pressure;Samples;Min_cycle;Max_cycle;Signal;HPM_P1;HPM_P2
2022/08/07 00:00:32;;;;;;;8.17;7.37;;;18.90;57.70;;;21.51;44.78;102613.03;5116785;28;20188;-63
2022/08/07 00:02:59;;;;;;;8.20;7.17;;;18.80;58.20;;;21.46;45.53;102609.31;5117405;28;20676;-63
2022/08/07 00:05:29;;;;;;;7.77;6.47;;;18.70;58.40;;;21.43;45.34;102610.53;5119215;28;20275;-63
2022/08/07 00:07:56;;;;;;;8.47;7.67;;;18.70;58.80;;;21.38;45.83;102606.81;5116696;27;20194;-63
2022/08/07 00:10:26;;;;;;;7.70;6.90;;;18.60;59.70;;;21.37;45.60;102607.84;5117870;28;20195;-63
2022/08/07 00:13:00;;;;;;;8.80;7.43;;;18.60;59.20;;;21.35;45.96;102605.34;5118702;28;20208;-62
2022/08/07 00:15:46;;;;;;;7.93;7.17;;;18.60;59.30;;;21.34;45.68;102602.88;5116676;28;20198;-63
2022/08/07 00:18:20;;;;;;;8.30;7.13;;;18.60;59.40;;;21.33;46.14;102599.38;5117091;28;20210;-64
2022/08/07 00:20:53;;;;;;;8.60;7.77;;;18.60;59.30;;;21.32;45.70;102597.69;5118337;28;20188;-63
2022/08/07 00:23:20;;;;;;;7.80;6.33;;;18.60;59.10;;;21.33;45.55;102604.72;5115163;28;20208;-64
2022/08/07 00:25:48;;;;;;;7.23;6.53;;;18.60;58.90;;;21.33;45.06;102593.16;5115977;28;20188;-64
2022/08/07 00:28:28;;;;;;;8.07;6.80;;;18.60;58.50;;;21.32;44.95;102597.69;5117497;28;20271;-62
2022/08/07 00:31:06;;;;;;;7.50;6.63;;;18.60;58.40;;;21.32;44.98;102594.22;5115412;28;20214;-65
2022/08/07 00:33:42;;;;;;;8.33;7.53;;;18.60;58.40;;;21.31;46.03;102597.91;5116090;28;20190;-63
2022/08/07 00:36:14;;;;;;;7.90;6.30;;;18.60;59.10;;;21.33;45.81;102599.38;5116004;28;20623;-63
2022/08/07 00:38:43;;;;;;;7.83;7.13;;;18.60;58.70;;;21.34;45.77;102595.66;5114055;28;20713;-64
2022/08/07 00:41:10;;;;;;;9.70;7.93;;;18.60;58.90;;;21.35;45.78;102591.94;5114832;28;20184;-62
2022/08/07 00:43:42;;;;;;;8.33;7.53;;;18.60;59.00;;;21.36;45.99;102593.63;5095052;28;20720;-64
2022/08/07 00:46:31;;;;;;;9.67;7.50;;;18.60;59.00;;;21.33;45.61;102591.31;5096593;28;20549;-64
2022/08/07 00:49:01;;;;;;;8.10;7.23;;;18.60;59.20;;;21.35;46.06;102597.31;5104358;27;20187;-64
2022/08/07 00:51:30;;;;;;;9.10;7.53;;;18.70;59.50;;;21.39;45.75;102587.88;5135490;27;20211;-63
2022/08/07 00:54:18;;;;;;;7.97;7.17;;;18.70;59.80;;;21.40;46.04;102594.84;5119219;27;20192;-62
2022/08/07 00:56:46;;;;;;;7.50;6.70;;;18.70;59.30;;;21.41;45.67;102591.16;5111780;28;20202;-62
2022/08/07 00:59:16;;;;;;;7.60;6.80;;;18.70;59.10;;;21.39;45.67;102587.88;5115192;28;20195;-64
2022/08/07 01:01:49;;;;;;;7.80;6.80;;;18.70;59.10;;;21.36;45.71;102582.91;5114976;28;20211;-64
2022/08/07 01:04:24;;;;;;;7.97;7.17;;;18.70;59.30;;;21.29;46.29;102587.41;5115263;28;20192;-63
2022/08/07 01:06:56;;;;;;;8.93;7.97;;;18.60;59.50;;;21.24;46.66;102589.84;5115733;28;20300;-65
2022/08/07 01:09:24;;;;;;;9.00;8.10;;;18.50;60.00;;;21.22;46.42;102591.91;5115557;28;20196;-62
2022/08/07 01:12:14;;;;;;;8.20;7.50;;;18.50;60.00;;;21.17;46.84;102583.63;5108677;28;20216;-62
2022/08/07 01:14:58;;;;;;;10.43;7.23;;;18.50;60.20;;;21.12;46.54;102586.06;5114868;28;20214;-63
2022/08/07 01:17:33;;;;;;;8.77;7.37;;;18.40;60.40;;;21.05;47.20;102585.22;5115278;28;20648;-62
2022/08/07 01:20:08;;;;;;;8.23;7.43;;;18.30;60.60;;;20.99;46.95;102585.16;5114177;28;20241;-64
2022/08/07 01:22:45;;;;;;;9.00;7.70;;;18.30;60.90;;;20.93;47.46;102597.47;5114585;28;20277;-62
2022/08/07 01:25:34;;;;;;;7.87;6.90;;;18.20;61.20;;;20.86;47.16;102591.25;5115052;28;20184;-63
2022/08/07 01:28:22;;;;;;;8.20;7.40;;;18.20;61.50;;;20.81;47.55;102596.38;5114218;28;20237;-63
2022/08/07 01:30:52;;;;;;;8.10;7.30;;;18.10;61.70;;;20.77;47.82;102592.44;5114586;28;20195;-64
2022/08/07 01:33:21;;;;;;;9.10;8.20;;;18.00;62.10;;;20.73;47.68;102594.66;5114062;28;20203;-64
2022/08/07 01:35:49;;;;;;;8.83;7.77;;;18.00;62.30;;;20.70;47.73;102591.56;5114585;28;20187;-64
2022/08/07 01:38:23;;;;;;;8.23;7.37;;;17.90;62.40;;;20.65;48.37;102591.31;5121391;28;20539;-62
2022/08/07 01:40:56;;;;;;;10.03;8.40;;;17.90;62.60;;;20.61;48.28;102598.09;5134662;27;20198;-64
2022/08/07 01:43:24;;;;;;;8.93;8.03;;;17.80;62.90;;;20.57;48.33;102592.28;5126912;27;20211;-65
2022/08/07 01:46:02;;;;;;;8.10;7.40;;;17.80;63.30;;;20.57;48.78;102596.81;5114643;28;20191;-64
2022/08/07 01:48:31;;;;;;;9.23;8.33;;;17.80;63.50;;;20.56;49.05;102595.16;5114253;28;20195;-64
2022/08/07 01:51:04;;;;;;;12.60;8.93;;;17.80;63.60;;;20.55;48.58;102590.81;5134375;28;20202;-63
2022/08/07 01:53:56;;;;;;;11.93;9.87;;;17.80;63.60;;;20.54;49.00;102591.88;5121773;27;20272;-65
2022/08/07 01:56:50;;;;;;;13.63;9.00;;;17.80;63.70;;;20.51;48.72;102592.25;5114416;28;20217;-62
2022/08/07 01:59:24;;;;;;;9.00;8.07;;;17.70;63.60;;;20.51;49.05;102590.41;5111420;28;20206;-65
2022/08/07 02:02:04;;;;;;;9.27;8.37;;;17.70;63.70;;;20.50;49.08;102586.06;5093374;28;20298;-64
2022/08/07 02:04:43;;;;;;;10.27;8.87;;;17.70;63.90;;;20.49;49.17;102583.59;5093954;28;20245;-64
2022/08/07 02:07:30;;;;;;;9.63;8.63;;;17.70;63.90;;;20.48;49.08;102581.94;5094743;28;20192;-64
2022/08/07 02:10:24;;;;;;;11.30;8.87;;;17.70;64.00;;;20.43;49.28;102584.34;5093853;28;20196;-64
2022/08/07 02:12:55;;;;;;;9.23;8.03;;;17.70;64.10;;;20.42;49.33;102567.47;5093518;28;20219;-64
2022/08/07 02:15:28;;;;;;;10.07;9.07;;;17.60;64.10;;;20.41;49.24;102573.84;5096588;28;20527;-64
2022/08/07 02:17:59;;;;;;;10.50;8.33;;;17.60;64.30;;;20.40;49.17;102574.03;5113710;28;20671;-64
2022/08/07 02:20:30;;;;;;;8.67;7.77;;;17.60;64.20;;;20.39;49.22;102567.03;5113742;28;20184;-63
2022/08/07 02:23:03;;;;;;;8.70;7.80;;;17.60;64.30;;;20.37;49.26;102569.91;5113819;28;20212;-64
2022/08/07 02:25:38;;;;;;;8.77;7.93;;;17.60;64.40;;;20.36;48.99;102564.75;5113731;28;20192;-63
2022/08/07 02:28:30;;;;;;;8.13;7.33;;;17.60;64.40;;;20.32;49.41;102571.50;5097461;28;20215;-64
2022/08/07 02:31:01;;;;;;;9.03;7.73;;;17.60;64.40;;;20.30;49.45;102565.53;5094608;28;20196;-64
2022/08/07 02:33:52;;;;;;;10.83;8.07;;;17.50;64.80;;;20.28;49.71;102562.22;5097880;28;20196;-64
2022/08/07 02:36:32;;;;;;;9.93;7.93;;;17.60;65.10;;;20.28;49.96;102563.03;5098906;28;20189;-63
2022/08/07 02:39:04;;;;;;;8.27;7.30;;;17.60;64.90;;;20.30;49.32;102549.50;5098245;28;20208;-64
2022/08/07 02:41:47;;;;;;;9.57;7.90;;;17.60;64.70;;;20.29;49.61;102564.69;5098417;28;20212;-64
2022/08/07 02:44:24;;;;;;;8.47;7.67;;;17.60;64.70;;;20.27;49.59;102556.03;5099182;28;20203;-63
2022/08/07 02:47:04;;;;;;;8.57;7.77;;;17.50;64.40;;;20.22;49.49;102558.47;5099236;28;20188;-64
2022/08/07 02:49:33;;;;;;;8.97;8.07;;;17.50;64.70;;;20.19;49.29;102556.16;5115089;27;20611;-63
2022/08/07 02:52:31;;;;;;;9.23;8.23;;;17.40;64.80;;;20.11;50.04;102557.09;5138886;27;20206;-64
2022/08/07 02:55:06;;;;;;;8.97;7.73;;;17.40;65.10;;;20.10;49.51;102555.47;5117450;28;20202;-63
2022/08/07 02:58:01;;;;;;;8.53;7.73;;;17.40;65.10;;;20.06;50.13;102550.69;5099146;28;20219;-63
2022/08/07 03:00:34;;;;;;;8.63;7.77;;;17.30;65.20;;;20.04;49.78;102550.06;5098769;28;20252;-63
2022/08/07 03:03:08;;;;;;;8.90;8.10;;;17.30;65.50;;;20.03;50.15;102546.56;5099108;28;20624;-62
2022/08/07 03:05:51;;;;;;;9.10;8.30;;;17.30;65.40;;;20.00;50.27;102544.25;5099130;28;20219;-63
2022/08/07 03:08:21;;;;;;;8.93;8.07;;;17.30;65.60;;;19.99;50.47;102545.25;5107365;28;20248;-62
2022/08/07 03:10:57;;;;;;;11.57;8.17;;;17.20;65.80;;;19.99;50.45;102541.78;5118469;28;20192;-64
2022/08/07 03:13:25;;;;;;;8.50;7.53;;;17.20;65.90;;;19.98;50.15;102548.13;5097742;28;20590;-64
2022/08/07 03:15:54;;;;;;;8.30;7.50;;;17.20;65.90;;;19.96;50.28;102540.31;5095371;28;20200;-63
2022/08/07 03:18:26;;;;;;;8.17;7.40;;;17.20;65.80;;;19.95;50.07;102541.31;5096630;28;20261;-63
2022/08/07 03:21:05;;;;;;;8.03;7.23;;;17.20;66.00;;;19.93;50.52;102546.03;5096332;28;20219;-64
2022/08/07 03:23:40;;;;;;;8.13;7.33;;;17.20;66.10;;;19.94;50.74;102537.03;5096185;28;20243;-64
2022/08/07 03:26:31;;;;;;;8.30;7.50;;;17.20;66.20;;;19.92;50.14;102533.69;5096612;28;20193;-64
2022/08/07 03:29:05;;;;;;;8.17;7.37;;;17.20;66.10;;;19.91;50.61;102536.56;5097274;28;20192;-64
2022/08/07 03:31:38;;;;;;;8.40;7.50;;;17.20;66.10;;;19.87;50.30;102536.09;5109170;28;20230;-64
2022/08/07 03:34:12;;;;;;;11.00;8.60;;;17.10;66.20;;;19.87;50.39;102544.13;5115637;28;20188;-64
2022/08/07 03:36:51;;;;;;;9.33;8.27;;;17.10;66.50;;;19.84;50.61;102549.88;5115545;28;20240;-64
2022/08/07 03:39:23;;;;;;;9.10;8.17;;;17.10;66.70;;;19.87;50.68;102552.13;5116816;28;20187;-64
2022/08/07 03:42:13;;;;;;;8.80;7.50;;;17.10;67.10;;;19.91;51.19;102548.09;5115303;28;20721;-64
2022/08/07 03:44:43;;;;;;;9.10;8.03;;;17.20;67.20;;;20.01;51.06;102551.28;5103788;28;20200;-64
2022/08/07 03:47:21;;;;;;;9.30;8.10;;;17.30;66.80;;;20.13;50.44;102551.56;5096065;28;20197;-64
2022/08/07 03:49:56;;;;;;;8.60;7.67;;;17.40;66.30;;;20.21;50.36;102549.59;5118529;27;20207;-63
2022/08/07 03:52:27;;;;;;;7.87;7.13;;;17.50;65.90;;;20.29;49.94;102562.03;5136256;27;20211;-64
2022/08/07 03:54:56;;;;;;;8.30;7.50;;;17.60;65.60;;;20.39;49.57;102553.66;5117554;28;20202;-63
2022/08/07 03:57:34;;;;;;;8.80;7.73;;;17.70;64.90;;;20.41;49.59;102547.09;5116987;28;20579;-63
2022/08/07 04:00:25;;;;;;;14.20;12.07;;;17.70;64.50;;;20.41;49.01;102554.28;5107193;27;20200;-65
2022/08/07 04:02:57;;;;;;;11.43;9.70;;;17.70;64.40;;;20.38;49.11;102557.34;5096597;28;20213;-64
2022/08/07 04:05:25;;;;;;;8.47;7.63;;;17.70;64.50;;;20.35;49.41;102565.78;5094641;28;20193;-65
2022/08/07 04:08:10;;;;;;;8.80;8.00;;;17.70;64.50;;;20.30;49.17;102577.03;5102177;28;20656;-64
2022/08/07 04:10:39;;;;;;;8.43;7.63;;;17.60;64.50;;;20.25;49.62;102577.63;5116143;28;20645;-64
2022/08/07 04:13:12;;;;;;;9.17;8.27;;;17.60;64.90;;;20.20;49.56;102574.69;5116045;28;20203;-63
2022/08/07 04:15:44;;;;;;;9.00;8.17;;;17.50;65.30;;;20.17;49.63;102580.41;5114818;28;20727;-64
2022/08/07 04:18:16;;;;;;;8.60;7.70;;;17.40;65.40;;;20.15;50.28;102571.75;5114554;28;20296;-63
2022/08/07 04:21:04;;;;;;;9.70;8.27;;;17.40;65.80;;;20.11;49.93;102580.38;5114977;28;20195;-65
2022/08/07 04:23:34;;;;;;;10.17;8.27;;;17.40;65.90;;;20.10;50.46;102573.34;5115141;28;20212;-64
2022/08/07 04:26:22;;;;;;;9.77;8.63;;;17.40;66.10;;;20.07;50.71;102573.72;5114601;28;20624;-62
2022/08/07 04:28:54;;;;;;;9.30;8.30;;;17.30;66.10;;;20.03;50.21;102567.94;5115464;28;20204;-64
2022/08/07 04:31:25;;;;;;;9.17;7.90;;;17.30;66.20;;;20.02;50.38;102576.13;5114923;28;20215;-62
2022/08/07 04:34:13;;;;;;;10.23;8.93;;;17.20;67.30;;;20.02;50.93;102586.84;5095153;28;20192;-62
2022/08/07 04:36:43;;;;;;;11.20;9.47;;;17.20;66.80;;;20.03;50.84;102575.97;5095086;28;20228;-65
2022/08/07 04:39:15;;;;;;;9.00;8.10;;;17.20;67.30;;;20.05;51.23;102581.94;5093936;28;20201;-64
2022/08/07 04:41:47;;;;;;;11.73;9.67;;;17.30;67.80;;;20.10;51.43;102576.84;5094691;28;20204;-64
2022/08/07 04:44:17;;;;;;;12.23;9.40;;;17.30;68.00;;;20.19;51.27;102582.88;5094758;28;20208;-63
2022/08/07 04:47:01;;;;;;;9.57;8.57;;;17.40;67.70;;;20.27;50.81;102587.31;5094664;28;20189;-64
2022/08/07 04:49:47;;;;;;;9.03;8.13;;;17.50;67.30;;;20.41;50.23;102586.41;5096586;28;20567;-63
2022/08/07 04:52:41;;;;;;;10.83;7.93;;;17.60;66.70;;;20.55;50.40;102582.81;5095479;28;20216;-62
2022/08/07 04:55:29;;;;;;;11.43;8.23;;;17.80;66.20;;;20.64;49.88;102581.63;5114656;28;20215;-64
2022/08/07 04:58:25;;;;;;;9.33;8.43;;;17.90;65.60;;;20.67;49.39;102579.41;5114729;28;20260;-63
2022/08/07 05:01:20;;;;;;;10.50;8.60;;;18.00;65.30;;;20.70;49.68;102586.22;5114368;28;20188;-63
2022/08/07 05:04:09;;;;;;;8.90;8.10;;;18.00;65.20;;;20.69;49.65;102579.19;5114667;28;20276;-62
2022/08/07 05:07:05;;;;;;;9.70;8.73;;;18.00;65.30;;;20.70;49.72;102591.56;5114409;28;20279;-62
2022/08/07 05:09:58;;;;;;;8.13;7.43;;;18.00;65.20;;;20.74;49.56;102588.28;5094100;28;20593;-64
2022/08/07 05:12:36;;;;;;;10.17;8.70;;;18.10;65.30;;;20.81;49.75;102594.53;5093839;28;20208;-64
2022/08/07 05:15:21;;;;;;;13.30;8.27;;;18.10;65.80;;;20.88;49.08;102594.56;5093998;28;20188;-65
2022/08/07 05:17:58;;;;;;;9.67;7.70;;;18.20;65.00;;;20.94;49.23;102593.78;5094039;28;20189;-64
2022/08/07 05:20:38;;;;;;;9.80;8.90;;;18.20;64.80;;;21.00;48.75;102587.63;5094377;28;20232;-61
2022/08/07 05:23:15;;;;;;;10.10;8.40;;;18.30;64.70;;;21.04;49.12;102588.88;5099279;28;20216;-63
2022/08/07 05:25:45;;;;;;;8.60;7.80;;;18.30;64.60;;;21.08;48.56;102584.00;5114531;28;20216;-64
2022/08/07 05:28:36;;;;;;;9.37;7.77;;;18.40;64.60;;;21.12;48.90;102591.44;5114593;28;20219;-64
2022/08/07 05:31:11;;;;;;;8.27;7.47;;;18.30;64.10;;;21.14;48.46;102589.38;5113660;28;20192;-64
2022/08/07 05:33:44;;;;;;;9.80;8.87;;;18.40;64.10;;;21.20;48.36;102588.59;5114316;28;20232;-63
2022/08/07 05:36:33;;;;;;;9.63;8.73;;;18.50;64.00;;;21.25;48.48;102593.38;5114271;28;20726;-64
2022/08/07 05:39:04;;;;;;;9.53;8.63;;;18.50;63.70;;;21.30;48.17;102598.94;5114264;28;20711;-64
2022/08/07 05:41:52;;;;;;;9.27;8.37;;;18.60;63.70;;;21.34;48.21;102606.38;5113752;28;20203;-62
2022/08/07 05:44:34;;;;;;;9.90;8.53;;;18.60;63.60;;;21.43;47.70;102602.50;5114275;28;20315;-62
2022/08/07 05:47:03;;;;;;;9.40;8.50;;;18.70;63.70;;;21.52;48.01;102609.34;5112662;28;20199;-63
2022/08/07 05:49:52;;;;;;;9.33;8.43;;;18.80;63.50;;;21.62;48.08;102608.13;5123877;28;20183;-63
2022/08/07 05:52:21;;;;;;;8.63;7.83;;;18.80;63.20;;;21.70;47.30;102605.28;5134267;27;20290;-64
2022/08/07 05:55:00;;;;;;;9.20;7.07;;;18.90;62.70;;;21.78;46.46;102602.41;5113402;28;20202;-64
2022/08/07 05:57:40;;;;;;;7.67;6.87;;;19.00;61.70;;;21.80;46.18;102606.53;5114314;28;20636;-64
2022/08/07 06:00:10;;;;;;;8.00;6.73;;;19.00;61.00;;;21.84;45.93;102601.59;5112554;28;20180;-64
2022/08/07 06:02:48;;;;;;;6.43;5.83;;;19.10;60.20;;;21.80;45.79;102600.34;5093188;28;20219;-64
2022/08/07 06:05:17;;;;;;;7.00;5.63;;;19.10;59.80;;;21.78;44.87;102597.88;5096158;28;20192;-64
2022/08/07 06:07:53;;;;;;;7.40;6.70;;;19.10;59.10;;;21.75;45.63;102613.53;5102834;28;20716;-62
2022/08/07 06:10:42;;;;;;;8.40;6.33;;;19.00;59.60;;;21.76;45.18;102604.44;5108813;28;20199;-64
2022/08/07 06:13:10;;;;;;;8.77;5.97;;;19.00;59.10;;;21.69;44.64;102603.59;5114972;28;20278;-64
2022/08/07 06:15:43;;;;;;;8.50;6.73;;;19.00;58.80;;;21.61;44.79;102601.13;5111306;28;20265;-64
2022/08/07 06:18:12;;;;;;;8.30;6.93;;;19.00;58.90;;;21.49;45.01;102599.00;5112873;28;20197;-64
2022/08/07 06:20:42;;;;;;;6.60;6.00;;;18.90;59.10;;;21.45;45.88;102595.09;5130086;28;20196;-64
2022/08/07 06:23:31;;;;;;;8.20;6.83;;;18.80;59.40;;;21.42;45.62;102598.16;5127231;28;20206;-63
2022/08/07 06:26:20;;;;;;;7.77;7.07;;;18.80;59.90;;;21.45;45.97;102603.13;5123567;28;20237;-64
2022/08/07 06:28:58;;;;;;;6.97;5.83;;;18.80;60.20;;;21.52;46.11;102593.25;5117603;28;20244;-64
2022/08/07 06:31:27;;;;;;;6.83;6.23;;;18.80;60.30;;;21.65;46.25;102597.00;5117175;28;20244;-64
2022/08/07 06:34:15;;;;;;;8.07;7.20;;;18.80;60.50;;;21.78;45.93;102599.72;5117562;28;20241;-62
2022/08/07 06:36:47;;;;;;;7.87;7.07;;;18.90;60.20;;;21.81;45.21;102602.00;5117802;28;20299;-64
2022/08/07 06:39:20;;;;;;;9.03;7.87;;;19.00;59.70;;;21.73;45.57;102599.53;5117065;28;20224;-65
2022/08/07 06:42:16;;;;;;;9.73;7.43;;;19.00;59.40;;;21.64;45.33;102600.69;5105302;28;20597;-64
2022/08/07 06:44:46;;;;;;;9.73;7.90;;;19.00;58.90;;;21.59;45.38;102596.78;5096701;28;20216;-63
2022/08/07 06:47:18;;;;;;;7.00;6.27;;;19.00;59.10;;;21.61;45.38;102593.09;5097076;28;20192;-63
2022/08/07 06:49:47;;;;;;;7.30;6.60;;;19.00;59.30;;;21.71;45.78;102596.19;5116975;27;20191;-64
2022/08/07 06:52:21;;;;;;;7.47;6.77;;;19.00;59.70;;;21.84;45.56;102585.50;5137428;27;20211;-61
2022/08/07 06:55:09;;;;;;;8.63;7.10;;;19.10;59.80;;;21.97;45.58;102590.91;5096514;28;20264;-63
2022/08/07 06:58:01;;;;;;;8.47;7.03;;;19.10;60.00;;;22.10;44.75;102585.59;5109213;28;20203;-61
2022/08/07 07:00:36;;;;;;;8.20;7.40;;;19.20;59.50;;;22.15;44.97;102588.47;5116295;28;20183;-62
2022/08/07 07:03:06;;;;;;;9.37;7.53;;;19.40;59.70;;;22.24;44.54;102597.97;5100808;28;20212;-63
2022/08/07 07:05:39;;;;;;;7.03;6.43;;;19.40;59.00;;;22.28;44.35;102596.53;5096614;28;20649;-62
2022/08/07 07:08:27;;;;;;;6.53;5.90;;;19.50;58.60;;;22.40;44.40;102597.56;5105640;28;20214;-62
2022/08/07 07:10:57;;;;;;;7.47;6.77;;;19.60;58.80;;;22.56;44.15;102602.50;5116301;28;20248;-61
2022/08/07 07:13:35;;;;;;;7.73;6.17;;;19.70;58.70;;;22.71;43.62;102605.81;5115936;28;20188;-61
2022/08/07 07:16:29;;;;;;;7.70;6.40;;;19.80;58.40;;;22.80;43.17;102599.19;5115373;28;20224;-62
2022/08/07 07:19:03;;;;;;;8.77;5.90;;;19.90;57.60;;;22.88;42.75;102603.53;5116755;28;20660;-63
2022/08/07 07:21:54;;;;;;;6.23;5.70;;;20.00;57.50;;;23.00;42.83;102598.31;5116080;28;20688;-63
2022/08/07 07:24:41;;;;;;;7.03;6.40;;;20.00;57.50;;;23.06;42.31;102592.13;5116152;28;20227;-63
2022/08/07 07:27:14;;;;;;;6.20;5.60;;;20.20;56.40;;;23.14;42.16;102591.88;5116417;28;20192;-64
2022/08/07 07:29:48;;;;;;;9.17;6.60;;;20.30;56.70;;;23.25;41.85;102591.25;5113296;28;20272;-62
2022/08/07 07:32:39;;;;;;;6.40;5.80;;;20.40;56.20;;;23.35;41.75;102589.75;5116001;28;20230;-62
2022/08/07 07:35:11;;;;;;;5.27;4.80;;;20.50;56.00;;;23.46;41.58;102593.66;5116147;28;20713;-64
2022/08/07 07:37:46;;;;;;;5.60;5.10;;;20.60;55.70;;;23.60;41.14;102592.56;5116018;28;20193;-66
2022/08/07 07:40:31;;;;;;;6.40;5.73;;;20.70;55.50;;;23.73;41.23;102595.16;5115753;28;20659;-64
2022/08/07 07:43:04;;;;;;;6.77;6.17;;;20.80;55.40;;;23.84;40.45;102588.28;5115949;28;20204;-64
2022/08/07 07:45:47;;;;;;;5.60;5.10;;;20.90;54.30;;;23.93;39.95;102601.25;5114545;28;20202;-64
2022/08/07 07:48:38;;;;;;;5.67;5.07;;;21.00;53.70;;;24.01;39.26;102597.47;5095846;27;20196;-64
2022/08/07 07:51:07;;;;;;;5.27;4.67;;;21.00;52.60;;;24.10;38.85;102597.00;5136260;27;20236;-64
2022/08/07 07:53:40;;;;;;;5.93;5.13;;;21.10;52.80;;;24.53;38.88;102590.88;5125930;27;20199;-64
2022/08/07 07:56:23;;;;;;;5.73;5.23;;;21.20;52.80;;;25.40;37.23;102577.88;5115402;28;20565;-63
2022/08/07 07:59:01;;;;;;;7.30;5.50;;;21.50;52.20;;;26.45;36.16;102581.72;5115694;28;20191;-63
2022/08/07 08:01:31;;;;;;;6.13;5.53;;;22.00;52.60;;;27.45;33.36;102585.00;5114276;28;20212;-63
2022/08/07 08:04:22;;;;;;;5.43;4.90;;;22.60;49.70;;;28.48;32.94;102581.94;5095193;28;20212;-64
2022/08/07 08:06:55;;;;;;;4.60;4.10;;;23.40;49.30;;;29.65;31.75;102579.63;5094889;28;20275;-64
2022/08/07 08:09:27;;;;;;;4.60;4.20;;;24.10;49.00;;;30.92;29.90;102576.84;5112112;28;20274;-64
2022/08/07 08:11:58;;;;;;;4.70;3.93;;;24.90;47.60;;;32.16;27.89;102577.41;5114576;28;20207;-63
2022/08/07 08:14:34;;;;;;;5.13;4.63;;;25.60;45.60;;;33.14;26.12;102570.34;5115546;28;20202;-65
2022/08/07 08:17:07;;;;;;;4.20;3.87;;;26.50;42.40;;;33.84;24.57;102566.34;5114571;27;20629;-64
2022/08/07 08:20:03;;;;;;;3.97;3.67;;;27.20;39.20;;;34.68;23.66;102565.81;5095858;28;20193;-64
2022/08/07 08:28:40;;;;;;;3.57;3.33;;;29.40;35.80;;;37.22;20.29;102564.03;5094971;28;20238;-64
2022/08/07 08:31:20;;;;;;;4.10;3.80;;;30.00;32.40;;;37.64;20.32;102554.53;5094173;28;20192;-64
2022/08/07 08:34:11;;;;;;;4.47;4.07;;;30.60;32.10;;;38.07;19.94;102547.38;5096372;28;20196;-64
2022/08/07 08:36:56;;;;;;;5.57;4.60;;;31.10;31.00;;;38.70;19.55;102543.44;5115305;27;20199;-65
2022/08/07 08:39:26;;;;;;;4.15;3.85;;;31.60;30.60;;;39.25;19.71;102547.28;5114755;28;20191;-65
2022/08/07 08:42:24;;;;;;;6.50;5.53;;;32.00;30.40;;;39.92;18.72;102546.75;5114996;27;20552;-63
2022/08/07 08:45:09;;;;;;;5.53;5.13;;;32.50;29.00;;;40.37;17.51;102542.34;5115191;28;20218;-63
2022/08/07 08:47:54;;;;;;;5.15;4.65;;;32.80;28.40;;;40.70;17.40;102551.63;5115264;28;20168;-63
2022/08/07 08:50:29;;;;;;;4.80;4.35;;;33.20;27.30;;;40.91;16.97;102546.97;5116411;27;20256;-65
2022/08/07 08:53:21;;;;;;;4.97;4.47;;;33.50;27.40;;;40.81;16.10;102544.56;5100549;28;20222;-64
2022/08/07 08:55:55;;;;;;;4.97;4.50;;;33.80;26.00;;;40.74;16.37;102541.53;5114698;28;20195;-64
2022/08/07 08:58:40;;;;;;;4.90;4.50;;;33.90;25.40;;;40.77;16.71;102543.59;5113415;28;20237;-63
2022/08/07 09:01:15;;;;;;;4.80;4.40;;;34.20;25.90;;;41.00;16.13;102538.59;5113639;28;20271;-65
2022/08/07 09:03:58;;;;;;;4.22;3.95;;;34.30;25.20;;;41.20;16.42;102548.84;5114257;28;20227;-64
2022/08/07 09:06:47;;;;;;;4.88;4.18;;;34.40;25.60;;;41.51;15.78;102551.22;5113959;28;20654;-65
2022/08/07 09:09:53;;;;;;;3.75;3.53;;;34.50;24.80;;;41.65;16.06;102554.50;5114310;28;20227;-64
2022/08/07 09:12:45;;;;;;;4.57;4.18;;;34.60;25.10;;;42.06;15.85;102543.28;5113772;28;20207;-63
2022/08/07 09:15:46;;;;;;;4.43;4.13;;;34.80;25.00;;;42.51;14.93;102539.69;5114686;28;20195;-63
2022/08/07 09:19:10;;;;;;;5.55;5.13;;;35.10;24.50;;;42.17;15.06;102532.59;5116122;28;20199;-64
2022/08/07 09:22:14;;;;;;;4.78;4.38;;;35.20;23.60;;;42.14;15.25;102542.41;5113544;28;20207;-64
2022/08/07 09:25:10;;;;;;;5.28;4.80;;;35.30;24.30;;;42.47;15.04;102536.75;5094719;28;20208;-63
2022/08/07 09:27:54;;;;;;;6.35;4.53;;;35.50;24.10;;;42.81;14.97;102532.69;5095005;28;20649;-64
2022/08/07 09:30:47;;;;;;;4.43;4.03;;;35.60;24.30;;;43.07;14.19;102525.59;5094913;28;20207;-63
2022/08/07 09:33:45;;;;;;;5.28;4.85;;;35.80;23.70;;;43.18;14.31;102523.09;5093968;28;20213;-63
2022/08/07 09:36:34;;;;;;;5.05;4.65;;;36.00;23.40;;;43.61;14.30;102525.94;5094094;28;20222;-65
2022/08/07 09:39:26;;;;;;;5.32;4.85;;;36.10;23.20;;;43.62;13.47;102521.19;5094320;28;20556;-64
2022/08/07 09:42:36;;;;;;;5.00;4.60;;;36.00;22.20;;;43.28;14.21;102517.06;5113522;28;20260;-64
2022/08/07 09:45:13;;;;;;;4.45;4.15;;;36.20;23.10;;;43.09;14.23;102509.41;5112790;28;20223;-65
2022/08/07 09:48:18;;;;;;;4.68;4.28;;;36.20;22.90;;;42.84;14.31;102507.03;5093848;28;20192;-64
2022/08/07 09:51:07;;;;;;;4.82;4.40;;;36.10;22.70;;;43.02;14.60;102513.94;5131521;28;20195;-65
2022/08/07 09:54:02;;;;;;;4.50;4.20;;;36.20;23.20;;;43.57;14.36;102513.94;5121859;27;20278;-64
2022/08/07 09:57:08;;;;;;;5.28;4.93;;;36.30;23.50;;;44.17;14.17;102500.84;5114988;28;20268;-63
2022/08/07 10:00:07;;;;;;;4.20;3.90;;;36.40;23.20;;;44.51;13.09;102497.28;5103792;28;20207;-65
2022/08/07 10:03:34;;;;;;;4.90;4.60;;;36.50;23.00;;;44.79;13.19;102503.44;5113846;28;20300;-64
2022/08/07 10:06:48;;;;;;;4.80;4.50;;;36.70;22.10;;;43.89;13.06;102500.09;5093834;28;20535;-65
2022/08/07 10:09:50;;;;;;;4.78;4.28;;;36.80;21.80;;;41.95;14.41;102489.50;5111706;28;20240;-65
2022/08/07 10:12:55;;;;;;;4.70;4.32;;;36.40;22.00;;;41.73;14.23;102484.41;5101293;28;20212;-64
2022/08/07 10:15:50;;;;;;;4.10;3.80;;;36.00;22.30;;;42.12;14.99;102481.00;5092874;28;20579;-63
2022/08/07 10:18:42;;;;;;;4.28;3.95;;;35.90;23.10;;;42.73;14.30;102472.63;5093667;28;20199;-62
2022/08/07 10:21:28;;;;;;;4.63;3.92;;;35.80;23.20;;;43.60;13.65;102468.78;5093287;28;20184;-65
2022/08/07 10:25:03;;;;;;;4.20;3.80;;;35.90;22.90;;;44.67;12.40;102473.00;5092825;28;20265;-64
2022/08/07 10:27:52;;;;;;;4.13;3.75;;;36.30;22.50;;;45.43;12.65;102466.59;5094704;28;20242;-64
2022/08/07 10:30:35;;;;;;;4.15;3.80;;;36.60;21.90;;;45.24;12.33;102471.44;5094627;28;20653;-64
2022/08/07 10:33:36;;;;;;;4.30;4.00;;;36.80;21.20;;;45.20;12.47;102467.72;5092735;28;20215;-65
2022/08/07 10:36:40;;;;;;;4.32;4.03;;;37.00;21.40;;;45.14;11.85;102464.47;5098576;28;20196;-64
2022/08/07 10:39:35;;;;;;;4.07;3.47;;;37.20;20.90;;;44.68;12.41;102463.50;5095477;28;20264;-64
2022/08/07 10:42:37;;;;;;;4.43;4.03;;;37.30;20.90;;;43.74;13.12;102471.94;5101342;28;20223;-63
2022/08/07 10:45:20;;;;;;;4.35;4.05;;;37.30;20.70;;;42.15;13.88;102463.69;5112874;28;20245;-63
2022/08/07 10:48:25;;;;;;;3.65;3.35;;;36.90;20.80;;;40.23;15.52;102456.16;5113151;28;20614;-65
2022/08/07 10:51:09;;;;;;;4.55;4.15;;;36.20;21.20;;;38.81;16.33;102451.09;5092754;28;20189;-66
2022/08/07 10:54:09;;;;;;;4.60;4.03;;;35.30;22.00;;;37.48;17.28;102457.03;5110920;28;20188;-64
2022/08/07 10:56:55;;;;;;;4.85;4.45;;;34.30;23.00;;;36.46;19.03;102444.03;5117504;28;20198;-65
2022/08/07 10:59:49;;;;;;;5.60;5.10;;;33.50;23.90;;;35.61;19.36;102452.75;5116384;28;20196;-64
2022/08/07 11:02:28;;;;;;;3.88;3.58;;;32.80;24.90;;;35.01;20.19;102443.56;5115084;28;20529;-64
2022/08/07 11:05:31;;;;;;;3.70;3.40;;;32.10;25.40;;;34.24;20.69;102444.84;5116663;28;20208;-63
2022/08/07 11:08:28;;;;;;;3.37;3.17;;;31.50;26.10;;;33.66;21.24;102437.78;5116354;28;20187;-65
2022/08/07 11:11:04;;;;;;;3.73;3.40;;;31.00;26.60;;;33.20;21.06;102446.34;5116266;27;20270;-64
2022/08/07 11:13:41;;;;;;;4.00;3.60;;;30.60;26.70;;;32.67;21.94;102441.72;5117073;28;20183;-63
2022/08/07 11:16:39;;;;;;;3.60;3.30;;;30.20;27.10;;;32.18;21.84;102432.63;5108908;28;20201;-64